sensor_id;sensor_type;location;lat;lon;timestamp;P1;durP1;ratioP1;P2;durP2;ratioP2
13580;SDS011;6861;46.170;7.222;2022-10-31T00:01:46;10.55;;;2.90;;
13580;SDS011;6861;46.170;7.222;2022-10-31T00:04:13;9.45;;;3.88;;
13580;SDS011;6861;46.170;7.222;2022-10-31T00:06:40;10.80;;;3.33;;
13580;SDS011;6861;46.170;7.222;2022-10-31T00:09:10;9.77;;;4.03;;
13580;SDS011;6861;46.170;7.222;2022-10-31T00:11:37;11.23;;;3.92;;
13580;SDS011;6861;46.170;7.222;2022-10-31T00:14:04;9.98;;;3.25;;
13580;SDS011;6861;46.170;7.222;2022-10-31T00:16:31;6.03;;;3.08;;
13580;SDS011;6861;46.170;7.222;2022-10-31T00:18:58;7.25;;;3.72;;
13580;SDS011;6861;46.170;7.222;2022-10-31T00:21:26;8.52;;;3.60;;
13580;SDS011;6861;46.170;7.222;2022-10-31T00:23:53;8.50;;;3.00;;
13580;SDS011;6861;46.170;7.222;2022-10-31T00:26:21;7.15;;;3.10;;
13580;SDS011;6861;46.170;7.222;2022-10-31T00:28:48;13.98;;;3.42;;
13580;SDS011;6861;46.170;7.222;2022-10-31T00:31:16;5.60;;;3.10;;
13580;SDS011;6861;46.170;7.222;2022-10-31T00:33:43;7.55;;;3.67;;
13580;SDS011;6861;46.170;7.222;2022-10-31T00:36:11;6.72;;;2.85;;
13580;SDS011;6861;46.170;7.222;2022-10-31T00:38:39;10.18;;;3.25;;
13580;SDS011;6861;46.170;7.222;2022-10-31T00:41:06;9.32;;;3.03;;
13580;SDS011;6861;46.170;7.222;2022-10-31T00:43:35;11.75;;;3.15;;
13580;SDS011;6861;46.170;7.222;2022-10-31T00:46:02;5.88;;;3.35;;
13580;SDS011;6861;46.170;7.222;2022-10-31T00:48:29;6.47;;;3.05;;
13580;SDS011;6861;46.170;7.222;2022-10-31T00:50:57;9.73;;;3.85;;
13580;SDS011;6861;46.170;7.222;2022-10-31T00:53:24;7.65;;;3.78;;
13580;SDS011;6861;46.170;7.222;2022-10-31T00:55:51;9.10;;;3.72;;
13580;SDS011;6861;46.170;7.222;2022-10-31T00:58:18;7.55;;;3.47;;
13580;SDS011;6861;46.170;7.222;2022-10-31T01:00:48;8.43;;;3.10;;
13580;SDS011;6861;46.170;7.222;2022-10-31T01:03:20;8.65;;;2.70;;
13580;SDS011;6861;46.170;7.222;2022-10-31T01:05:54;7.65;;;3.08;;
13580;SDS011;6861;46.170;7.222;2022-10-31T01:08:25;12.88;;;3.40;;
13580;SDS011;6861;46.170;7.222;2022-10-31T01:10:59;7.95;;;3.45;;
13580;SDS011;6861;46.170;7.222;2022-10-31T01:13:27;8.25;;;3.75;;
13580;SDS011;6861;46.170;7.222;2022-10-31T01:15:55;9.60;;;3.80;;
13580;SDS011;6861;46.170;7.222;2022-10-31T01:18:25;6.80;;;3.47;;
13580;SDS011;6861;46.170;7.222;2022-10-31T01:21:02;8.25;;;3.90;;
13580;SDS011;6861;46.170;7.222;2022-10-31T01:23:31;11.52;;;4.20;;
13580;SDS011;6861;46.170;7.222;2022-10-31T01:25:59;9.10;;;3.63;;
13580;SDS011;6861;46.170;7.222;2022-10-31T01:28:27;7.70;;;3.88;;
13580;SDS011;6861;46.170;7.222;2022-10-31T01:30:55;8.40;;;3.72;;
13580;SDS011;6861;46.170;7.222;2022-10-31T01:33:26;11.93;;;3.92;;
13580;SDS011;6861;46.170;7.222;2022-10-31T01:35:53;9.85;;;4.10;;
13580;SDS011;6861;46.170;7.222;2022-10-31T01:38:20;11.48;;;4.40;;
13580;SDS011;6861;46.170;7.222;2022-10-31T01:40:48;12.02;;;3.88;;
13580;SDS011;6861;46.170;7.222;2022-10-31T01:43:15;12.07;;;3.97;;
13580;SDS011;6861;46.170;7.222;2022-10-31T01:45:43;8.15;;;3.85;;
13580;SDS011;6861;46.170;7.222;2022-10-31T01:48:15;12.80;;;4.00;;
13580;SDS011;6861;46.170;7.222;2022-10-31T01:50:45;12.52;;;4.45;;
13580;SDS011;6861;46.170;7.222;2022-10-31T01:53:14;8.27;;;3.72;;
13580;SDS011;6861;46.170;7.222;2022-10-31T01:55:43;12.45;;;4.18;;
13580;SDS011;6861;46.170;7.222;2022-10-31T01:58:13;9.85;;;4.15;;
13580;SDS011;6861;46.170;7.222;2022-10-31T02:00:43;7.43;;;3.70;;
13580;SDS011;6861;46.170;7.222;2022-10-31T02:03:13;8.30;;;4.10;;
13580;SDS011;6861;46.170;7.222;2022-10-31T02:05:41;8.45;;;4.20;;
13580;SDS011;6861;46.170;7.222;2022-10-31T02:08:10;12.07;;;3.70;;
13580;SDS011;6861;46.170;7.222;2022-10-31T02:10:42;10.15;;;4.28;;
13580;SDS011;6861;46.170;7.222;2022-10-31T02:13:10;12.82;;;4.15;;
13580;SDS011;6861;46.170;7.222;2022-10-31T02:15:38;6.82;;;3.30;;
13580;SDS011;6861;46.170;7.222;2022-10-31T02:18:06;11.98;;;3.63;;
13580;SDS011;6861;46.170;7.222;2022-10-31T02:20:38;11.05;;;4.00;;
13580;SDS011;6861;46.170;7.222;2022-10-31T02:23:20;7.57;;;3.42;;
13580;SDS011;6861;46.170;7.222;2022-10-31T02:26:07;7.85;;;3.50;;
13580;SDS011;6861;46.170;7.222;2022-10-31T02:31:42;10.27;;;3.95;;
13580;SDS011;6861;46.170;7.222;2022-10-31T02:34:15;6.72;;;3.80;;
13580;SDS011;6861;46.170;7.222;2022-10-31T02:36:47;8.07;;;3.90;;
13580;SDS011;6861;46.170;7.222;2022-10-31T02:39:22;9.05;;;3.63;;
13580;SDS011;6861;46.170;7.222;2022-10-31T02:41:52;10.27;;;3.90;;
13580;SDS011;6861;46.170;7.222;2022-10-31T02:44:30;8.77;;;2.92;;
13580;SDS011;6861;46.170;7.222;2022-10-31T02:47:05;6.43;;;3.30;;
13580;SDS011;6861;46.170;7.222;2022-10-31T02:49:36;7.65;;;3.45;;
13580;SDS011;6861;46.170;7.222;2022-10-31T02:52:17;9.15;;;3.13;;
13580;SDS011;6861;46.170;7.222;2022-10-31T02:54:45;10.25;;;3.65;;
13580;SDS011;6861;46.170;7.222;2022-10-31T02:57:13;5.75;;;2.90;;
13580;SDS011;6861;46.170;7.222;2022-10-31T02:59:44;4.60;;;2.40;;
13580;SDS011;6861;46.170;7.222;2022-10-31T03:02:28;8.07;;;2.65;;
13580;SDS011;6861;46.170;7.222;2022-10-31T03:05:10;7.15;;;3.13;;
13580;SDS011;6861;46.170;7.222;2022-10-31T03:07:50;7.13;;;3.20;;
13580;SDS011;6861;46.170;7.222;2022-10-31T03:10:25;8.60;;;2.92;;
13580;SDS011;6861;46.170;7.222;2022-10-31T03:13:03;8.90;;;2.70;;
13580;SDS011;6861;46.170;7.222;2022-10-31T03:15:36;6.85;;;2.80;;
13580;SDS011;6861;46.170;7.222;2022-10-31T03:18:07;10.13;;;2.80;;
13580;SDS011;6861;46.170;7.222;2022-10-31T03:20:39;6.72;;;2.90;;
13580;SDS011;6861;46.170;7.222;2022-10-31T03:23:09;9.05;;;3.20;;
13580;SDS011;6861;46.170;7.222;2022-10-31T03:25:40;6.18;;;3.28;;
13580;SDS011;6861;46.170;7.222;2022-10-31T03:28:08;11.48;;;3.50;;
13580;SDS011;6861;46.170;7.222;2022-10-31T03:30:38;8.82;;;3.40;;
13580;SDS011;6861;46.170;7.222;2022-10-31T03:33:11;10.10;;;3.53;;
13580;SDS011;6861;46.170;7.222;2022-10-31T03:35:44;8.23;;;3.70;;
13580;SDS011;6861;46.170;7.222;2022-10-31T03:38:13;10.07;;;3.20;;
13580;SDS011;6861;46.170;7.222;2022-10-31T03:40:42;7.32;;;3.25;;
13580;SDS011;6861;46.170;7.222;2022-10-31T03:43:13;8.38;;;3.88;;
13580;SDS011;6861;46.170;7.222;2022-10-31T03:45:45;6.75;;;3.53;;
13580;SDS011;6861;46.170;7.222;2022-10-31T03:48:14;7.88;;;3.22;;
13580;SDS011;6861;46.170;7.222;2022-10-31T03:50:45;8.23;;;3.58;;
13580;SDS011;6861;46.170;7.222;2022-10-31T03:53:22;8.30;;;3.40;;
13580;SDS011;6861;46.170;7.222;2022-10-31T03:55:55;8.82;;;3.65;;
13580;SDS011;6861;46.170;7.222;2022-10-31T03:58:26;9.90;;;3.70;;
13580;SDS011;6861;46.170;7.222;2022-10-31T04:00:58;7.40;;;3.35;;
13580;SDS011;6861;46.170;7.222;2022-10-31T04:03:30;7.93;;;3.72;;
13580;SDS011;6861;46.170;7.222;2022-10-31T04:06:00;7.75;;;2.70;;
13580;SDS011;6861;46.170;7.222;2022-10-31T04:08:32;8.88;;;3.30;;
13580;SDS011;6861;46.170;7.222;2022-10-31T04:11:04;6.60;;;3.03;;
13580;SDS011;6861;46.170;7.222;2022-10-31T04:13:33;9.10;;;3.38;;
13580;SDS011;6861;46.170;7.222;2022-10-31T04:16:02;9.60;;;2.90;;
13580;SDS011;6861;46.170;7.222;2022-10-31T04:18:31;8.57;;;2.90;;
13580;SDS011;6861;46.170;7.222;2022-10-31T04:21:01;8.63;;;3.00;;
13580;SDS011;6861;46.170;7.222;2022-10-31T04:23:30;6.88;;;2.78;;
13580;SDS011;6861;46.170;7.222;2022-10-31T04:25:57;4.30;;;2.60;;
13580;SDS011;6861;46.170;7.222;2022-10-31T04:28:24;6.20;;;2.60;;
13580;SDS011;6861;46.170;7.222;2022-10-31T04:30:51;8.55;;;2.88;;
13580;SDS011;6861;46.170;7.222;2022-10-31T04:33:18;7.40;;;3.00;;
13580;SDS011;6861;46.170;7.222;2022-10-31T04:35:47;7.40;;;3.40;;
13580;SDS011;6861;46.170;7.222;2022-10-31T04:38:14;10.05;;;3.83;;
13580;SDS011;6861;46.170;7.222;2022-10-31T04:40:41;7.07;;;3.10;;
13580;SDS011;6861;46.170;7.222;2022-10-31T04:43:08;6.63;;;2.78;;
13580;SDS011;6861;46.170;7.222;2022-10-31T04:45:35;7.93;;;3.15;;
13580;SDS011;6861;46.170;7.222;2022-10-31T04:48:02;7.80;;;2.92;;
13580;SDS011;6861;46.170;7.222;2022-10-31T04:50:28;7.80;;;3.20;;
13580;SDS011;6861;46.170;7.222;2022-10-31T04:52:57;3.63;;;2.35;;
13580;SDS011;6861;46.170;7.222;2022-10-31T04:55:24;9.10;;;3.33;;
13580;SDS011;6861;46.170;7.222;2022-10-31T04:57:51;8.63;;;3.50;;
13580;SDS011;6861;46.170;7.222;2022-10-31T05:00:18;5.75;;;3.13;;
13580;SDS011;6861;46.170;7.222;2022-10-31T05:02:47;7.07;;;2.83;;
13580;SDS011;6861;46.170;7.222;2022-10-31T05:05:15;4.53;;;2.85;;
13580;SDS011;6861;46.170;7.222;2022-10-31T05:07:44;9.55;;;4.10;;
13580;SDS011;6861;46.170;7.222;2022-10-31T05:10:14;11.60;;;3.63;;
13580;SDS011;6861;46.170;7.222;2022-10-31T05:12:46;10.43;;;3.42;;
13580;SDS011;6861;46.170;7.222;2022-10-31T05:15:14;5.00;;;3.00;;
13580;SDS011;6861;46.170;7.222;2022-10-31T05:17:41;7.47;;;3.70;;
13580;SDS011;6861;46.170;7.222;2022-10-31T05:20:08;11.32;;;3.47;;
13580;SDS011;6861;46.170;7.222;2022-10-31T05:22:36;7.78;;;2.60;;
13580;SDS011;6861;46.170;7.222;2022-10-31T05:25:03;9.80;;;2.83;;
13580;SDS011;6861;46.170;7.222;2022-10-31T05:27:31;6.35;;;3.05;;
13580;SDS011;6861;46.170;7.222;2022-10-31T05:29:58;7.35;;;3.10;;
13580;SDS011;6861;46.170;7.222;2022-10-31T05:32:25;6.63;;;3.10;;
13580;SDS011;6861;46.170;7.222;2022-10-31T05:34:52;4.78;;;2.83;;
13580;SDS011;6861;46.170;7.222;2022-10-31T05:37:19;7.40;;;2.90;;
13580;SDS011;6861;46.170;7.222;2022-10-31T05:39:46;7.78;;;3.53;;
13580;SDS011;6861;46.170;7.222;2022-10-31T05:42:12;6.68;;;3.50;;
13580;SDS011;6861;46.170;7.222;2022-10-31T05:44:41;9.38;;;3.28;;
13580;SDS011;6861;46.170;7.222;2022-10-31T05:47:07;7.63;;;2.28;;
13580;SDS011;6861;46.170;7.222;2022-10-31T05:49:34;5.93;;;2.25;;
13580;SDS011;6861;46.170;7.222;2022-10-31T05:52:01;6.28;;;2.70;;
13580;SDS011;6861;46.170;7.222;2022-10-31T05:54:28;8.05;;;2.50;;
13580;SDS011;6861;46.170;7.222;2022-10-31T05:56:55;7.93;;;2.60;;
13580;SDS011;6861;46.170;7.222;2022-10-31T05:59:22;6.35;;;3.25;;
13580;SDS011;6861;46.170;7.222;2022-10-31T06:01:50;6.15;;;2.60;;
13580;SDS011;6861;46.170;7.222;2022-10-31T06:04:17;6.65;;;2.97;;
13580;SDS011;6861;46.170;7.222;2022-10-31T06:06:44;4.70;;;2.80;;
13580;SDS011;6861;46.170;7.222;2022-10-31T06:09:11;11.93;;;3.05;;
13580;SDS011;6861;46.170;7.222;2022-10-31T06:11:38;8.43;;;2.85;;
13580;SDS011;6861;46.170;7.222;2022-10-31T06:14:05;6.63;;;2.92;;
13580;SDS011;6861;46.170;7.222;2022-10-31T06:16:32;7.75;;;2.58;;
13580;SDS011;6861;46.170;7.222;2022-10-31T06:19:00;8.02;;;3.08;;
13580;SDS011;6861;46.170;7.222;2022-10-31T06:21:27;8.18;;;2.60;;
13580;SDS011;6861;46.170;7.222;2022-10-31T06:23:54;8.20;;;2.72;;
13580;SDS011;6861;46.170;7.222;2022-10-31T06:26:21;9.70;;;2.65;;
13580;SDS011;6861;46.170;7.222;2022-10-31T06:28:48;5.50;;;3.00;;
13580;SDS011;6861;46.170;7.222;2022-10-31T06:31:14;10.55;;;3.05;;
13580;SDS011;6861;46.170;7.222;2022-10-31T06:33:41;9.63;;;3.05;;
13580;SDS011;6861;46.170;7.222;2022-10-31T06:36:10;6.32;;;2.70;;
13580;SDS011;6861;46.170;7.222;2022-10-31T06:38:37;7.07;;;3.63;;
13580;SDS011;6861;46.170;7.222;2022-10-31T06:41:04;12.35;;;3.90;;
13580;SDS011;6861;46.170;7.222;2022-10-31T06:43:32;9.27;;;3.80;;
13580;SDS011;6861;46.170;7.222;2022-10-31T06:46:01;10.43;;;3.60;;
13580;SDS011;6861;46.170;7.222;2022-10-31T06:48:29;11.00;;;3.83;;
13580;SDS011;6861;46.170;7.222;2022-10-31T06:50:57;42.22;;;13.65;;
13580;SDS011;6861;46.170;7.222;2022-10-31T06:53:26;13.90;;;5.03;;
13580;SDS011;6861;46.170;7.222;2022-10-31T06:55:54;21.58;;;5.97;;
13580;SDS011;6861;46.170;7.222;2022-10-31T06:58:21;12.38;;;5.07;;
13580;SDS011;6861;46.170;7.222;2022-10-31T07:00:49;7.78;;;4.15;;
13580;SDS011;6861;46.170;7.222;2022-10-31T07:03:16;14.60;;;4.35;;
13580;SDS011;6861;46.170;7.222;2022-10-31T07:05:43;10.48;;;4.30;;
13580;SDS011;6861;46.170;7.222;2022-10-31T07:08:10;11.15;;;4.15;;
13580;SDS011;6861;46.170;7.222;2022-10-31T07:10:40;11.30;;;4.50;;
13580;SDS011;6861;46.170;7.222;2022-10-31T07:13:10;10.02;;;4.38;;
13580;SDS011;6861;46.170;7.222;2022-10-31T07:15:39;10.30;;;4.65;;
13580;SDS011;6861;46.170;7.222;2022-10-31T07:18:07;10.98;;;4.60;;
13580;SDS011;6861;46.170;7.222;2022-10-31T07:20:35;9.32;;;4.72;;
13580;SDS011;6861;46.170;7.222;2022-10-31T07:23:02;8.55;;;4.15;;
13580;SDS011;6861;46.170;7.222;2022-10-31T07:25:29;9.38;;;4.18;;
13580;SDS011;6861;46.170;7.222;2022-10-31T07:27:58;9.20;;;4.00;;
13580;SDS011;6861;46.170;7.222;2022-10-31T07:30:25;8.48;;;3.85;;
13580;SDS011;6861;46.170;7.222;2022-10-31T07:32:51;5.70;;;3.15;;
13580;SDS011;6861;46.170;7.222;2022-10-31T07:35:19;8.90;;;3.60;;
13580;SDS011;6861;46.170;7.222;2022-10-31T07:37:47;5.18;;;3.30;;
13580;SDS011;6861;46.170;7.222;2022-10-31T07:40:15;11.25;;;4.13;;
13580;SDS011;6861;46.170;7.222;2022-10-31T07:42:43;9.27;;;3.75;;
13580;SDS011;6861;46.170;7.222;2022-10-31T07:45:13;13.77;;;3.65;;
13580;SDS011;6861;46.170;7.222;2022-10-31T07:47:43;9.07;;;3.30;;
13580;SDS011;6861;46.170;7.222;2022-10-31T07:50:12;4.85;;;2.80;;
13580;SDS011;6861;46.170;7.222;2022-10-31T07:52:40;12.60;;;2.88;;
13580;SDS011;6861;46.170;7.222;2022-10-31T07:55:07;7.13;;;2.42;;
13580;SDS011;6861;46.170;7.222;2022-10-31T07:57:35;7.30;;;2.28;;
13580;SDS011;6861;46.170;7.222;2022-10-31T08:00:03;3.58;;;2.03;;
13580;SDS011;6861;46.170;7.222;2022-10-31T08:02:31;6.90;;;2.15;;
13580;SDS011;6861;46.170;7.222;2022-10-31T08:04:58;6.70;;;2.20;;
13580;SDS011;6861;46.170;7.222;2022-10-31T08:07:27;6.85;;;2.80;;
13580;SDS011;6861;46.170;7.222;2022-10-31T08:09:54;11.23;;;3.75;;
13580;SDS011;6861;46.170;7.222;2022-10-31T08:12:21;11.57;;;3.30;;
13580;SDS011;6861;46.170;7.222;2022-10-31T08:14:48;8.13;;;3.55;;
13580;SDS011;6861;46.170;7.222;2022-10-31T08:17:16;12.55;;;3.97;;
13580;SDS011;6861;46.170;7.222;2022-10-31T08:19:44;9.75;;;3.72;;
13580;SDS011;6861;46.170;7.222;2022-10-31T08:22:11;9.95;;;4.63;;
13580;SDS011;6861;46.170;7.222;2022-10-31T08:24:38;11.57;;;4.47;;
13580;SDS011;6861;46.170;7.222;2022-10-31T08:27:05;11.18;;;4.13;;
13580;SDS011;6861;46.170;7.222;2022-10-31T08:29:31;9.05;;;3.97;;
13580;SDS011;6861;46.170;7.222;2022-10-31T08:31:58;9.05;;;4.07;;
13580;SDS011;6861;46.170;7.222;2022-10-31T08:34:25;10.00;;;3.50;;
13580;SDS011;6861;46.170;7.222;2022-10-31T08:36:54;9.40;;;3.75;;
13580;SDS011;6861;46.170;7.222;2022-10-31T08:39:20;7.55;;;3.30;;
13580;SDS011;6861;46.170;7.222;2022-10-31T08:41:47;10.30;;;3.38;;
13580;SDS011;6861;46.170;7.222;2022-10-31T08:44:15;6.55;;;2.90;;
13580;SDS011;6861;46.170;7.222;2022-10-31T08:46:42;6.38;;;2.92;;
13580;SDS011;6861;46.170;7.222;2022-10-31T08:49:09;7.13;;;2.70;;
13580;SDS011;6861;46.170;7.222;2022-10-31T08:51:36;6.53;;;2.88;;
13580;SDS011;6861;46.170;7.222;2022-10-31T08:54:04;7.82;;;2.70;;
13580;SDS011;6861;46.170;7.222;2022-10-31T08:56:31;7.72;;;2.80;;
13580;SDS011;6861;46.170;7.222;2022-10-31T08:58:58;5.40;;;2.60;;
13580;SDS011;6861;46.170;7.222;2022-10-31T09:01:25;5.78;;;2.55;;
13580;SDS011;6861;46.170;7.222;2022-10-31T09:03:52;5.55;;;2.15;;
13580;SDS011;6861;46.170;7.222;2022-10-31T09:06:18;6.80;;;2.20;;
13580;SDS011;6861;46.170;7.222;2022-10-31T09:08:45;4.22;;;1.40;;
13580;SDS011;6861;46.170;7.222;2022-10-31T09:11:14;11.77;;;2.28;;
13580;SDS011;6861;46.170;7.222;2022-10-31T09:13:40;9.63;;;4.13;;
13580;SDS011;6861;46.170;7.222;2022-10-31T09:16:07;11.57;;;4.90;;
13580;SDS011;6861;46.170;7.222;2022-10-31T09:18:34;8.52;;;3.47;;
13580;SDS011;6861;46.170;7.222;2022-10-31T09:21:01;3.78;;;2.33;;
13580;SDS011;6861;46.170;7.222;2022-10-31T09:23:28;5.53;;;1.63;;
13580;SDS011;6861;46.170;7.222;2022-10-31T09:25:55;6.78;;;2.05;;
13580;SDS011;6861;46.170;7.222;2022-10-31T09:28:26;9.45;;;2.42;;
13580;SDS011;6861;46.170;7.222;2022-10-31T09:30:53;10.55;;;5.18;;
13580;SDS011;6861;46.170;7.222;2022-10-31T09:33:21;10.93;;;4.50;;
13580;SDS011;6861;46.170;7.222;2022-10-31T09:35:48;10.23;;;3.95;;
13580;SDS011;6861;46.170;7.222;2022-10-31T09:38:16;5.65;;;2.00;;
13580;SDS011;6861;46.170;7.222;2022-10-31T09:40:46;8.32;;;2.90;;
13580;SDS011;6861;46.170;7.222;2022-10-31T09:43:15;8.57;;;2.60;;
13580;SDS011;6861;46.170;7.222;2022-10-31T09:45:50;5.70;;;1.92;;
13580;SDS011;6861;46.170;7.222;2022-10-31T09:51:16;6.68;;;2.00;;
13580;SDS011;6861;46.170;7.222;2022-10-31T09:53:46;3.97;;;1.60;;
13580;SDS011;6861;46.170;7.222;2022-10-31T09:56:17;6.65;;;1.42;;
13580;SDS011;6861;46.170;7.222;2022-10-31T09:58:47;7.72;;;1.80;;
13580;SDS011;6861;46.170;7.222;2022-10-31T10:04:14;8.15;;;1.60;;
13580;SDS011;6861;46.170;7.222;2022-10-31T10:06:54;7.45;;;1.55;;
13580;SDS011;6861;46.170;7.222;2022-10-31T10:09:22;7.18;;;1.58;;
13580;SDS011;6861;46.170;7.222;2022-10-31T10:11:54;5.30;;;1.55;;
13580;SDS011;6861;46.170;7.222;2022-10-31T10:14:34;5.30;;;1.65;;
13580;SDS011;6861;46.170;7.222;2022-10-31T10:17:24;3.45;;;1.20;;
13580;SDS011;6861;46.170;7.222;2022-10-31T10:20:10;7.70;;;2.67;;
13580;SDS011;6861;46.170;7.222;2022-10-31T10:22:51;8.23;;;1.90;;
13580;SDS011;6861;46.170;7.222;2022-10-31T10:25:24;8.63;;;3.35;;
13580;SDS011;6861;46.170;7.222;2022-10-31T10:28:00;4.13;;;1.50;;
13580;SDS011;6861;46.170;7.222;2022-10-31T10:30:35;7.03;;;2.33;;
13580;SDS011;6861;46.170;7.222;2022-10-31T10:33:09;5.53;;;1.55;;
13580;SDS011;6861;46.170;7.222;2022-10-31T10:35:39;7.28;;;1.80;;
13580;SDS011;6861;46.170;7.222;2022-10-31T10:38:12;6.97;;;1.80;;
13580;SDS011;6861;46.170;7.222;2022-10-31T10:40:50;5.10;;;1.35;;
13580;SDS011;6861;46.170;7.222;2022-10-31T10:43:21;4.80;;;1.10;;
13580;SDS011;6861;46.170;7.222;2022-10-31T10:45:49;4.18;;;1.50;;
13580;SDS011;6861;46.170;7.222;2022-10-31T10:48:44;6.53;;;1.50;;
13580;SDS011;6861;46.170;7.222;2022-10-31T10:51:20;3.05;;;1.15;;
13580;SDS011;6861;46.170;7.222;2022-10-31T10:53:53;5.43;;;1.20;;
13580;SDS011;6861;46.170;7.222;2022-10-31T10:56:37;4.63;;;1.40;;
13580;SDS011;6861;46.170;7.222;2022-10-31T10:59:12;4.43;;;1.50;;
13580;SDS011;6861;46.170;7.222;2022-10-31T11:01:42;5.10;;;1.38;;
13580;SDS011;6861;46.170;7.222;2022-10-31T11:04:20;3.25;;;1.35;;
13580;SDS011;6861;46.170;7.222;2022-10-31T11:07:01;5.20;;;1.30;;
13580;SDS011;6861;46.170;7.222;2022-10-31T11:09:31;6.38;;;1.60;;
13580;SDS011;6861;46.170;7.222;2022-10-31T11:11:58;6.35;;;1.40;;
13580;SDS011;6861;46.170;7.222;2022-10-31T11:14:26;8.50;;;1.60;;
13580;SDS011;6861;46.170;7.222;2022-10-31T11:16:55;4.15;;;1.38;;
13580;SDS011;6861;46.170;7.222;2022-10-31T11:19:35;3.08;;;1.30;;
13580;SDS011;6861;46.170;7.222;2022-10-31T11:22:06;4.78;;;1.58;;
13580;SDS011;6861;46.170;7.222;2022-10-31T11:24:37;4.20;;;1.20;;
13580;SDS011;6861;46.170;7.222;2022-10-31T11:27:13;5.90;;;1.70;;
13580;SDS011;6861;46.170;7.222;2022-10-31T11:29:42;7.03;;;1.58;;
13580;SDS011;6861;46.170;7.222;2022-10-31T11:32:15;7.95;;;1.70;;
13580;SDS011;6861;46.170;7.222;2022-10-31T11:34:47;3.88;;;1.40;;
13580;SDS011;6861;46.170;7.222;2022-10-31T11:37:19;4.32;;;1.25;;
13580;SDS011;6861;46.170;7.222;2022-10-31T11:39:50;5.45;;;1.20;;
13580;SDS011;6861;46.170;7.222;2022-10-31T11:42:20;5.15;;;1.23;;
13580;SDS011;6861;46.170;7.222;2022-10-31T11:44:49;4.43;;;1.35;;
13580;SDS011;6861;46.170;7.222;2022-10-31T11:47:19;3.30;;;1.35;;
13580;SDS011;6861;46.170;7.222;2022-10-31T11:49:53;3.28;;;1.40;;
13580;SDS011;6861;46.170;7.222;2022-10-31T11:52:22;5.45;;;1.60;;
13580;SDS011;6861;46.170;7.222;2022-10-31T11:54:52;4.22;;;1.45;;
13580;SDS011;6861;46.170;7.222;2022-10-31T11:57:25;7.80;;;1.50;;
13580;SDS011;6861;46.170;7.222;2022-10-31T11:59:54;3.60;;;1.42;;
13580;SDS011;6861;46.170;7.222;2022-10-31T12:02:23;5.05;;;1.40;;
13580;SDS011;6861;46.170;7.222;2022-10-31T12:04:54;7.18;;;1.38;;
13580;SDS011;6861;46.170;7.222;2022-10-31T12:07:29;4.78;;;1.40;;
13580;SDS011;6861;46.170;7.222;2022-10-31T12:09:56;5.07;;;1.45;;
13580;SDS011;6861;46.170;7.222;2022-10-31T12:12:29;5.30;;;1.40;;
13580;SDS011;6861;46.170;7.222;2022-10-31T12:15:15;4.82;;;1.30;;
13580;SDS011;6861;46.170;7.222;2022-10-31T12:17:53;3.97;;;1.50;;
13580;SDS011;6861;46.170;7.222;2022-10-31T12:20:36;3.78;;;1.25;;
13580;SDS011;6861;46.170;7.222;2022-10-31T12:23:13;4.38;;;1.55;;
13580;SDS011;6861;46.170;7.222;2022-10-31T12:25:47;7.55;;;1.83;;
13580;SDS011;6861;46.170;7.222;2022-10-31T12:31:17;3.03;;;1.17;;
13580;SDS011;6861;46.170;7.222;2022-10-31T12:33:56;3.75;;;1.38;;
13580;SDS011;6861;46.170;7.222;2022-10-31T12:36:41;4.25;;;1.40;;
13580;SDS011;6861;46.170;7.222;2022-10-31T12:39:23;5.93;;;1.30;;
13580;SDS011;6861;46.170;7.222;2022-10-31T12:41:52;4.53;;;1.10;;
13580;SDS011;6861;46.170;7.222;2022-10-31T12:47:46;4.60;;;1.50;;
13580;SDS011;6861;46.170;7.222;2022-10-31T12:50:40;5.57;;;1.50;;
13580;SDS011;6861;46.170;7.222;2022-10-31T12:53:21;4.25;;;1.70;;
13580;SDS011;6861;46.170;7.222;2022-10-31T12:56:01;5.85;;;1.30;;
13580;SDS011;6861;46.170;7.222;2022-10-31T12:58:40;7.32;;;1.30;;
13580;SDS011;6861;46.170;7.222;2022-10-31T13:01:14;3.30;;;1.20;;
13580;SDS011;6861;46.170;7.222;2022-10-31T13:03:46;6.75;;;1.30;;
13580;SDS011;6861;46.170;7.222;2022-10-31T13:06:20;4.20;;;1.10;;
13580;SDS011;6861;46.170;7.222;2022-10-31T13:08:51;4.82;;;1.42;;
13580;SDS011;6861;46.170;7.222;2022-10-31T13:11:23;4.32;;;1.05;;
13580;SDS011;6861;46.170;7.222;2022-10-31T13:13:56;6.25;;;1.40;;
13580;SDS011;6861;46.170;7.222;2022-10-31T13:16:28;3.10;;;1.15;;
13580;SDS011;6861;46.170;7.222;2022-10-31T13:19:02;3.88;;;1.20;;
13580;SDS011;6861;46.170;7.222;2022-10-31T13:21:36;6.18;;;1.02;;
13580;SDS011;6861;46.170;7.222;2022-10-31T13:24:09;3.58;;;1.33;;
13580;SDS011;6861;46.170;7.222;2022-10-31T13:26:40;4.85;;;1.00;;
13580;SDS011;6861;46.170;7.222;2022-10-31T13:29:14;8.93;;;1.63;;
13580;SDS011;6861;46.170;7.222;2022-10-31T13:31:45;9.05;;;1.70;;
13580;SDS011;6861;46.170;7.222;2022-10-31T13:34:16;8.50;;;1.58;;
13580;SDS011;6861;46.170;7.222;2022-10-31T13:36:51;3.05;;;1.20;;
13580;SDS011;6861;46.170;7.222;2022-10-31T13:39:30;4.80;;;1.17;;
13580;SDS011;6861;46.170;7.222;2022-10-31T13:42:08;3.60;;;1.15;;
13580;SDS011;6861;46.170;7.222;2022-10-31T13:44:40;6.20;;;1.20;;
13580;SDS011;6861;46.170;7.222;2022-10-31T13:47:20;3.72;;;1.55;;
13580;SDS011;6861;46.170;7.222;2022-10-31T13:49:49;2.92;;;1.10;;
13580;SDS011;6861;46.170;7.222;2022-10-31T13:52:22;7.53;;;1.75;;
13580;SDS011;6861;46.170;7.222;2022-10-31T13:54:52;5.57;;;1.60;;
13580;SDS011;6861;46.170;7.222;2022-10-31T13:57:26;6.18;;;1.38;;
13580;SDS011;6861;46.170;7.222;2022-10-31T14:00:03;6.57;;;1.80;;
13580;SDS011;6861;46.170;7.222;2022-10-31T14:02:32;4.05;;;1.42;;
13580;SDS011;6861;46.170;7.222;2022-10-31T14:05:02;5.95;;;1.70;;
13580;SDS011;6861;46.170;7.222;2022-10-31T14:07:31;6.90;;;1.73;;
13580;SDS011;6861;46.170;7.222;2022-10-31T14:10:01;6.18;;;1.90;;
13580;SDS011;6861;46.170;7.222;2022-10-31T14:12:31;5.28;;;1.75;;
13580;SDS011;6861;46.170;7.222;2022-10-31T14:15:04;5.18;;;2.00;;
13580;SDS011;6861;46.170;7.222;2022-10-31T14:17:44;4.18;;;1.73;;
13580;SDS011;6861;46.170;7.222;2022-10-31T14:20:24;5.18;;;1.95;;
13580;SDS011;6861;46.170;7.222;2022-10-31T14:22:57;9.32;;;2.20;;
13580;SDS011;6861;46.170;7.222;2022-10-31T14:25:26;5.53;;;2.03;;
13580;SDS011;6861;46.170;7.222;2022-10-31T14:27:54;5.80;;;2.03;;
13580;SDS011;6861;46.170;7.222;2022-10-31T14:30:22;7.78;;;2.40;;
13580;SDS011;6861;46.170;7.222;2022-10-31T14:32:52;8.35;;;2.28;;
13580;SDS011;6861;46.170;7.222;2022-10-31T14:35:23;7.35;;;3.05;;
13580;SDS011;6861;46.170;7.222;2022-10-31T14:41:17;7.57;;;3.20;;
13580;SDS011;6861;46.170;7.222;2022-10-31T14:44:01;11.68;;;2.90;;
13580;SDS011;6861;46.170;7.222;2022-10-31T14:46:47;11.32;;;3.42;;
13580;SDS011;6861;46.170;7.222;2022-10-31T14:49:22;10.05;;;3.45;;
13580;SDS011;6861;46.170;7.222;2022-10-31T14:52:04;11.15;;;4.10;;
13580;SDS011;6861;46.170;7.222;2022-10-31T14:54:33;7.05;;;3.35;;
13580;SDS011;6861;46.170;7.222;2022-10-31T14:57:06;10.18;;;3.40;;
13580;SDS011;6861;46.170;7.222;2022-10-31T14:59:45;8.85;;;3.10;;
13580;SDS011;6861;46.170;7.222;2022-10-31T15:02:15;8.45;;;3.35;;
13580;SDS011;6861;46.170;7.222;2022-10-31T15:04:48;10.23;;;3.50;;
13580;SDS011;6861;46.170;7.222;2022-10-31T15:07:18;10.75;;;3.38;;
13580;SDS011;6861;46.170;7.222;2022-10-31T15:09:54;5.60;;;2.78;;
13580;SDS011;6861;46.170;7.222;2022-10-31T15:12:24;8.93;;;2.60;;
13580;SDS011;6861;46.170;7.222;2022-10-31T15:14:52;8.18;;;3.13;;
13580;SDS011;6861;46.170;7.222;2022-10-31T15:17:20;9.57;;;2.80;;
13580;SDS011;6861;46.170;7.222;2022-10-31T15:19:48;9.55;;;2.80;;
13580;SDS011;6861;46.170;7.222;2022-10-31T15:22:16;6.28;;;2.80;;
13580;SDS011;6861;46.170;7.222;2022-10-31T15:24:44;7.95;;;3.05;;
13580;SDS011;6861;46.170;7.222;2022-10-31T15:27:12;8.40;;;3.28;;
13580;SDS011;6861;46.170;7.222;2022-10-31T15:29:49;6.47;;;2.50;;
13580;SDS011;6861;46.170;7.222;2022-10-31T15:32:18;8.07;;;3.13;;
13580;SDS011;6861;46.170;7.222;2022-10-31T15:34:48;12.63;;;3.50;;
13580;SDS011;6861;46.170;7.222;2022-10-31T15:37:16;7.07;;;3.50;;